Time;durP1;ratioP1;P1;durP2;ratioP2;P2;SDS_P1;SDS_P2;PMS_P1;PMS_P2;Temp;Humidity;BMP_temperature;BMP_pressure;BME280_temperature;BME280_humidity;BME280_pressure;Samples;Min_cycle;Max_cycle;Signal;HPM_P1;HPM_P2
2023/05/25 16:49:16;;;;;;;;;28.50;24.50;;;;;;;;5103523;27;13507;-73
2023/05/25 16:51:41;;;;;;;;;24.25;21.00;;;;;;;;5106546;28;10782;-73
2023/05/25 16:54:06;;;;;;;;;25.75;22.50;;;;;;;;5105227;28;8831;-74
2023/05/25 16:56:34;;;;;;;;;28.00;25.00;;;;;;;;5106772;28;8787;-73
2023/05/25 16:58:59;;;;;;;;;27.75;25.50;;;;;;;;5108699;28;8799;-71
2023/05/25 17:01:24;;;;;;;;;20.75;20.00;;;;;;;;5115207;27;10372;-71
2023/05/25 17:03:50;;;;;;;;;24.00;23.00;;;;;;;;5110970;28;8889;-72
2023/05/25 17:06:15;;;;;;;;;20.00;20.00;;;;;;;;5105454;28;8816;-71
2023/05/25 17:08:41;;;;;;;;;27.00;25.75;;;;;;;;5099573;28;8848;-70
2023/05/25 17:11:06;;;;;;;;;27.50;24.00;;;;;;;;5092246;28;8834;-71
2023/05/25 17:13:31;;;;;;;;;29.25;27.50;;;;;;;;5096435;28;8801;-69
2023/05/25 17:15:57;;;;;;;;;29.00;25.75;;;;;;;;5106500;28;9752;-69
2023/05/25 17:18:22;;;;;;;;;30.25;26.25;;;;;;;;5102997;28;8818;-69
2023/05/25 17:20:48;;;;;;;;;26.50;24.00;;;;;;;;5095083;28;8806;-70
2023/05/25 17:23:15;;;;;;;;;27.75;24.25;;;;;;;;5093456;28;8835;-70
2023/05/25 17:25:41;;;;;;;;;33.00;29.50;;;;;;;;5106273;28;8804;-72
2023/05/25 17:28:06;;;;;;;;;24.00;23.00;;;;;;;;5106248;28;10562;-73
2023/05/25 17:30:31;;;;;;;;;26.75;25.75;;;;;;;;5106105;28;8784;-73
2023/05/25 17:33:00;;;;;;;;;31.00;27.00;;;;;;;;5104566;28;8829;-75
2023/05/25 17:35:25;;;;;;;;;29.75;25.25;;;;;;;;5105942;28;8801;-75
2023/05/25 17:37:51;;;;;;;;;31.00;31.00;;;;;;;;5105583;28;10231;-71
2023/05/25 17:40:16;;;;;;;;;23.25;23.25;;;;;;;;5106073;28;8816;-74
2023/05/25 17:42:41;;;;;;;;;27.00;24.75;;;;;;;;5107397;27;8805;-74
2023/05/25 17:45:10;;;;;;;;;21.25;19.50;;;;;;;;5029636;27;11254;-74
2023/05/25 17:47:35;;;;;;;;;20.75;19.50;;;;;;;;5033032;28;10936;-76
2023/05/25 17:50:00;;;;;;;;;23.25;21.50;;;;;;;;5065123;28;10041;-77
2023/05/25 17:52:30;;;;;;;;;23.50;21.25;;;;;;;;5060814;28;8938;-76
2023/05/25 17:54:55;;;;;;;;;22.00;21.25;;;;;;;;5045259;28;8861;-75
2023/05/25 17:57:21;;;;;;;;;23.50;19.00;;;;;;;;5045096;28;10111;-77
2023/05/25 17:59:46;;;;;;;;;24.75;24.25;;;;;;;;5035177;28;8951;-78
2023/05/25 18:02:11;;;;;;;;;26.00;25.50;;;;;;;;5031278;28;8840;-79
2023/05/25 18:04:37;;;;;;;;;28.00;24.50;;;;;;;;5031394;28;8855;-74
2023/05/25 18:07:02;;;;;;;;;26.25;26.25;;;;;;;;5018542;28;8830;-74
2023/05/25 18:09:27;;;;;;;;;29.50;25.50;;;;;;;;5031694;28;8800;-74
2023/05/25 18:11:53;;;;;;;;;23.75;23.25;;;;;;;;5031815;28;8895;-72
2023/05/25 18:14:18;;;;;;;;;28.25;26.50;;;;;;;;5028832;28;8839;-73
2023/05/25 18:16:44;;;;;;;;;22.00;21.25;;;;;;;;5031783;28;8839;-71
2023/05/25 18:19:14;;;;;;;;;26.25;22.75;;;;;;;;5031342;28;8835;-72
2023/05/25 18:21:39;;;;;;;;;29.50;28.00;;;;;;;;5031415;28;8808;-72
2023/05/25 18:24:07;;;;;;;;;25.75;22.75;;;;;;;;5029803;28;10717;-73
2023/05/25 18:26:33;;;;;;;;;26.50;22.50;;;;;;;;5030126;28;9837;-72
2023/05/25 18:28:58;;;;;;;;;27.00;25.00;;;;;;;;5029587;28;10533;-78
2023/05/25 18:31:24;;;;;;;;;25.50;22.00;;;;;;;;5030100;28;8807;-75
2023/05/25 18:33:51;;;;;;;;;24.50;23.75;;;;;;;;5028298;28;8847;-75
2023/05/25 18:36:17;;;;;;;;;29.00;25.75;;;;;;;;5030130;28;8839;-78
2023/05/25 18:38:42;;;;;;;;;26.25;24.75;;;;;;;;5062356;28;10593;-75
2023/05/25 18:41:08;;;;;;;;;28.50;26.50;;;;;;;;5031554;28;9059;-76
2023/05/25 18:43:35;;;;;;;;;26.50;24.75;;;;;;;;5039871;28;8820;-75
2023/05/25 18:46:01;;;;;;;;;25.75;24.75;;;;;;;;5049735;28;8901;-74
2023/05/25 18:48:26;;;;;;;;;29.50;28.50;;;;;;;;5050768;28;10761;-75
2023/05/25 18:50:51;;;;;;;;;27.50;23.50;;;;;;;;5051036;28;8844;-78
2023/05/25 18:53:20;;;;;;;;;25.75;25.25;;;;;;;;5047719;28;8833;-81
2023/05/25 18:55:45;;;;;;;;;24.00;24.00;;;;;;;;5051148;28;8813;-76
2023/05/25 18:58:11;;;;;;;;;24.50;23.50;;;;;;;;5049425;28;10853;-77
2023/05/25 19:00:36;;;;;;;;;24.75;20.50;;;;;;;;5050862;28;9528;-75
2023/05/25 19:03:01;;;;;;;;;25.00;21.25;;;;;;;;5042486;28;8831;-73
2023/05/25 19:05:27;;;;;;;;;19.00;19.00;;;;;;;;5030554;28;8840;-73
2023/05/25 19:07:52;;;;;;;;;21.25;19.75;;;;;;;;5030725;28;9520;-70
2023/05/25 19:10:18;;;;;;;;;22.00;20.50;;;;;;;;5029816;28;8839;-73
2023/05/25 19:12:46;;;;;;;;;19.00;14.75;;;;;;;;5027042;28;8989;-73
2023/05/25 19:15:12;;;;;;;;;19.25;19.25;;;;;;;;4978492;28;8952;-76
2023/05/25 19:17:37;;;;;;;;;22.50;22.25;;;;;;;;5030351;28;10489;-72
2023/05/25 19:20:03;;;;;;;;;19.25;17.00;;;;;;;;5012634;28;8815;-75
2023/05/25 19:22:28;;;;;;;;;20.25;19.75;;;;;;;;5029562;28;8845;-74
2023/05/25 19:24:53;;;;;;;;;20.00;20.00;;;;;;;;5007384;28;11069;-73
2023/05/25 19:27:19;;;;;;;;;21.00;17.25;;;;;;;;5030342;28;9556;-72
2023/05/25 19:29:46;;;;;;;;;23.25;23.25;;;;;;;;5030456;28;8796;-72
2023/05/25 19:32:11;;;;;;;;;24.50;24.50;;;;;;;;5029746;28;8823;-73
2023/05/25 19:34:36;;;;;;;;;25.00;24.00;;;;;;;;5029328;28;10723;-74
2023/05/25 19:37:01;;;;;;;;;18.50;18.50;;;;;;;;5029958;28;8831;-75
2023/05/25 19:39:29;;;;;;;;;22.00;20.25;;;;;;;;5029064;28;8847;-75
2023/05/25 19:41:54;;;;;;;;;25.00;21.75;;;;;;;;5030466;28;8926;-75
2023/05/25 19:44:20;;;;;;;;;21.75;21.00;;;;;;;;5060761;28;11350;-76
2023/05/25 19:46:45;;;;;;;;;23.50;21.75;;;;;;;;5028638;28;8824;-73
2023/05/25 19:49:10;;;;;;;;;23.00;20.25;;;;;;;;5029802;28;8958;-76
2023/05/25 19:51:36;;;;;;;;;22.50;22.50;;;;;;;;5029861;28;8826;-76
2023/05/25 19:54:01;;;;;;;;;18.00;18.00;;;;;;;;5028435;28;8819;-74
2023/05/25 19:56:27;;;;;;;;;24.25;22.25;;;;;;;;5029865;28;8850;-77
2023/05/25 19:58:52;;;;;;;;;23.75;19.00;;;;;;;;5029948;28;8812;-76
2023/05/25 20:01:17;;;;;;;;;22.25;20.25;;;;;;;;5029418;28;8942;-80
2023/05/25 20:03:43;;;;;;;;;19.75;17.00;;;;;;;;5027569;28;8831;-82
2023/05/25 20:06:11;;;;;;;;;19.00;18.25;;;;;;;;5027411;28;9578;-82
2023/05/25 20:08:36;;;;;;;;;22.50;19.25;;;;;;;;4996323;28;11073;-78
2023/05/25 20:11:02;;;;;;;;;23.25;22.00;;;;;;;;5024888;28;11335;-78
2023/05/25 20:13:28;;;;;;;;;22.75;22.00;;;;;;;;5029471;28;8827;-77
2023/05/25 20:15:53;;;;;;;;;21.25;19.25;;;;;;;;5029870;28;9562;-78
2023/05/25 20:18:18;;;;;;;;;17.50;16.25;;;;;;;;5018426;28;8823;-76
2023/05/25 20:20:44;;;;;;;;;34.00;24.00;;;;;;;;5037078;28;8804;-76
2023/05/25 20:23:18;;;;;;;;;22.50;19.75;;;;;;;;5028430;28;8835;-76
2023/05/25 20:25:44;;;;;;;;;26.50;25.75;;;;;;;;5026485;28;8812;-76
2023/05/25 20:28:12;;;;;;;;;27.25;23.00;;;;;;;;5028886;28;11015;-77
2023/05/25 20:30:37;;;;;;;;;27.00;22.25;;;;;;;;5028993;28;8848;-73
2023/05/25 20:33:02;;;;;;;;;27.25;21.25;;;;;;;;5028950;28;10842;-73
2023/05/25 20:35:30;;;;;;;;;22.00;20.50;;;;;;;;5028670;28;8828;-75
2023/05/25 20:37:56;;;;;;;;;29.00;27.25;;;;;;;;5028864;28;8808;-77
2023/05/25 20:40:25;;;;;;;;;28.75;23.25;;;;;;;;5028824;28;10881;-77
2023/05/25 20:42:54;;;;;;;;;21.75;20.50;;;;;;;;5029179;28;8815;-72
2023/05/25 20:45:23;;;;;;;;;26.25;22.25;;;;;;;;5028841;28;10545;-73
2023/05/25 20:47:57;;;;;;;;;21.00;19.50;;;;;;;;5060297;28;10767;-73
2023/05/25 20:50:25;;;;;;;;;23.25;22.00;;;;;;;;5028791;28;10701;-76
2023/05/25 20:52:50;;;;;;;;;22.25;19.25;;;;;;;;5028748;28;10766;-72
2023/05/25 20:55:15;;;;;;;;;29.00;23.00;;;;;;;;5028788;28;10686;-77
2023/05/25 20:57:40;;;;;;;;;23.50;23.50;;;;;;;;5028969;28;8827;-76
2023/05/25 21:00:07;;;;;;;;;22.25;18.00;;;;;;;;5028484;28;9671;-76
2023/05/25 21:02:32;;;;;;;;;24.00;22.75;;;;;;;;5021692;28;8834;-77
2023/05/25 21:04:57;;;;;;;;;24.50;22.00;;;;;;;;5024934;28;10724;-76
2023/05/25 21:07:25;;;;;;;;;24.25;22.00;;;;;;;;5026698;28;8815;-76
2023/05/25 21:10:03;;;;;;;;;28.50;23.50;;;;;;;;5009129;28;8814;-74
2023/05/25 21:12:28;;;;;;;;;22.50;20.00;;;;;;;;5007894;28;10978;-75
2023/05/25 21:14:53;;;;;;;;;25.25;23.50;;;;;;;;5009118;28;11531;-72
2023/05/25 21:17:19;;;;;;;;;23.50;21.25;;;;;;;;5008772;28;8929;-73
2023/05/25 21:19:45;;;;;;;;;21.00;21.00;;;;;;;;5008767;28;8822;-73
2023/05/25 21:22:12;;;;;;;;;22.00;22.00;;;;;;;;5007650;28;8826;-73
2023/05/25 21:24:41;;;;;;;;;24.25;24.25;;;;;;;;5009053;28;10484;-73
2023/05/25 21:27:08;;;;;;;;;23.50;20.75;;;;;;;;5008886;28;10907;-73
2023/05/25 21:29:34;;;;;;;;;25.00;19.75;;;;;;;;5008044;28;10679;-72
2023/05/25 21:31:59;;;;;;;;;18.75;17.00;;;;;;;;5007590;28;10637;-73
2023/05/25 21:34:25;;;;;;;;;21.25;19.00;;;;;;;;5025009;28;8810;-72
2023/05/25 21:36:53;;;;;;;;;15.75;15.50;;;;;;;;5028280;28;8827;-72
2023/05/25 21:39:18;;;;;;;;;20.00;18.25;;;;;;;;5032435;28;8824;-72
2023/05/25 21:41:44;;;;;;;;;20.50;20.50;;;;;;;;5032348;28;11294;-72
2023/05/25 21:44:12;;;;;;;;;15.50;14.00;;;;;;;;5032415;28;8784;-71
2023/05/25 21:46:38;;;;;;;;;20.25;19.75;;;;;;;;5032049;28;8816;-72
2023/05/25 21:49:03;;;;;;;;;17.50;17.25;;;;;;;;5063894;28;10610;-72
2023/05/25 21:51:31;;;;;;;;;22.50;22.50;;;;;;;;5031997;28;10638;-72
2023/05/25 21:53:59;;;;;;;;;21.25;18.00;;;;;;;;5032182;28;8827;-73
2023/05/25 21:56:28;;;;;;;;;22.50;21.50;;;;;;;;5032063;28;10765;-73
2023/05/25 21:58:53;;;;;;;;;25.25;22.00;;;;;;;;5032091;28;10881;-73
2023/05/25 22:01:19;;;;;;;;;27.25;24.25;;;;;;;;5031791;28;10516;-73
2023/05/25 22:03:44;;;;;;;;;24.75;22.00;;;;;;;;5031924;28;8796;-72
2023/05/25 22:06:09;;;;;;;;;22.75;20.75;;;;;;;;5030229;28;8843;-73
2023/05/25 22:08:35;;;;;;;;;26.00;22.50;;;;;;;;5031844;28;8807;-73
2023/05/25 22:11:00;;;;;;;;;24.25;22.50;;;;;;;;5031749;28;8784;-73
2023/05/25 22:13:25;;;;;;;;;20.75;19.00;;;;;;;;5031718;28;8811;-72
2023/05/25 22:15:51;;;;;;;;;20.75;17.50;;;;;;;;5031418;28;8804;-73
2023/05/25 22:18:16;;;;;;;;;18.00;17.00;;;;;;;;5063641;28;8800;-72
2023/05/25 22:20:42;;;;;;;;;18.25;17.00;;;;;;;;5031425;28;8822;-72
2023/05/25 22:23:07;;;;;;;;;18.00;17.25;;;;;;;;5063861;28;8832;-72
2023/05/25 22:25:33;;;;;;;;;21.75;18.00;;;;;;;;5030055;28;8905;-72
2023/05/25 22:27:58;;;;;;;;;20.00;17.00;;;;;;;;5031393;28;8850;-72
2023/05/25 22:30:23;;;;;;;;;17.25;16.00;;;;;;;;5031081;28;8811;-72
2023/05/25 22:32:49;;;;;;;;;16.25;16.25;;;;;;;;5031139;28;8986;-72
2023/05/25 22:35:14;;;;;;;;;18.25;16.50;;;;;;;;5031141;28;8892;-72
2023/05/25 22:37:39;;;;;;;;;17.50;16.75;;;;;;;;5031138;28;8807;-73
2023/05/25 22:40:05;;;;;;;;;16.50;15.75;;;;;;;;5031167;28;8881;-72
2023/05/25 22:42:30;;;;;;;;;19.25;17.00;;;;;;;;5031251;28;8804;-72
2023/05/25 22:44:56;;;;;;;;;15.75;14.00;;;;;;;;5031024;28;8915;-72
2023/05/25 22:47:21;;;;;;;;;17.75;15.50;;;;;;;;5030773;28;8831;-71
2023/05/25 22:49:49;;;;;;;;;16.50;15.50;;;;;;;;5031017;28;8851;-72
2023/05/25 22:52:14;;;;;;;;;15.75;13.75;;;;;;;;5030910;28;8811;-72
2023/05/25 22:54:39;;;;;;;;;16.25;14.25;;;;;;;;5030627;28;10694;-73
2023/05/25 22:57:05;;;;;;;;;16.00;12.50;;;;;;;;5030900;28;9652;-72
2023/05/25 22:59:30;;;;;;;;;17.00;16.25;;;;;;;;5029639;28;8849;-72
2023/05/25 23:01:56;;;;;;;;;22.00;18.50;;;;;;;;5030810;28;8941;-72
2023/05/25 23:04:21;;;;;;;;;22.75;20.75;;;;;;;;5030836;28;9030;-71
2023/05/25 23:06:46;;;;;;;;;19.75;17.00;;;;;;;;5062381;28;8828;-72
2023/05/25 23:09:12;;;;;;;;;17.50;16.50;;;;;;;;5030637;28;8799;-72
2023/05/25 23:11:37;;;;;;;;;20.00;16.00;;;;;;;;5029181;28;9600;-72
2023/05/25 23:14:02;;;;;;;;;15.50;13.25;;;;;;;;5030559;28;8814;-72
2023/05/25 23:16:28;;;;;;;;;20.75;15.75;;;;;;;;5030560;28;8890;-72
2023/05/25 23:18:54;;;;;;;;;21.25;17.50;;;;;;;;5030823;28;8791;-72
2023/05/25 23:21:19;;;;;;;;;20.00;19.50;;;;;;;;5029078;28;8787;-72
2023/05/25 23:23:45;;;;;;;;;20.25;17.00;;;;;;;;5030766;28;10942;-72
2023/05/25 23:26:10;;;;;;;;;21.00;19.50;;;;;;;;5030538;28;8933;-72
2023/05/25 23:28:35;;;;;;;;;17.25;17.25;;;;;;;;5030550;28;9025;-72
2023/05/25 23:31:00;;;;;;;;;23.00;20.25;;;;;;;;5030371;28;8815;-72
2023/05/25 23:33:27;;;;;;;;;20.00;18.75;;;;;;;;5030769;28;8795;-72
2023/05/25 23:35:53;;;;;;;;;20.00;20.00;;;;;;;;5028873;28;9555;-72
2023/05/25 23:38:18;;;;;;;;;22.25;18.00;;;;;;;;5045431;28;11119;-72
2023/05/25 23:40:43;;;;;;;;;25.25;19.75;;;;;;;;5029311;28;8821;-72
2023/05/25 23:43:09;;;;;;;;;17.75;17.00;;;;;;;;5028500;28;8814;-72
2023/05/25 23:45:34;;;;;;;;;21.00;20.00;;;;;;;;5045111;28;8823;-72
2023/05/25 23:48:00;;;;;;;;;20.50;17.75;;;;;;;;5029821;28;8904;-72
2023/05/25 23:50:25;;;;;;;;;20.75;20.25;;;;;;;;5029780;28;8811;-72
2023/05/25 23:52:50;;;;;;;;;20.00;17.00;;;;;;;;5029936;28;8880;-72
2023/05/25 23:55:15;;;;;;;;;20.50;20.50;;;;;;;;5029711;28;8819;-72
2023/05/25 23:57:41;;;;;;;;;19.75;17.25;;;;;;;;5029381;28;8846;-72
